createdAt,value
2023-05-25T00:00:57.452Z,8.60
2023-05-25T00:03:31.596Z,8.50
2023-05-25T00:06:01.614Z,8.50
2023-05-25T00:08:29.697Z,8.40
2023-05-25T00:10:56.588Z,8.40
2023-05-25T00:13:23.967Z,8.30
2023-05-25T00:15:51.024Z,8.30
2023-05-25T00:18:18.953Z,8.30
2023-05-25T00:20:47.652Z,8.30
2023-05-25T00:23:14.867Z,8.30
2023-05-25T00:25:41.920Z,8.30
2023-05-25T00:28:09.060Z,8.30
2023-05-25T00:30:35.986Z,8.30
2023-05-25T00:33:03.401Z,8.40
2023-05-25T00:35:30.707Z,8.60
2023-05-25T00:37:57.941Z,8.60
2023-05-25T00:40:26.163Z,8.70
2023-05-25T00:42:53.603Z,8.60
2023-05-25T00:45:20.501Z,8.60
2023-05-25T00:47:52.804Z,8.50
2023-05-25T00:50:36.272Z,8.40
2023-05-25T00:53:03.533Z,8.40
2023-05-25T00:55:33.611Z,8.30
2023-05-25T00:58:02.942Z,8.30
2023-05-25T01:00:32.720Z,8.10
2023-05-25T01:03:01.080Z,8.10
2023-05-25T01:05:30.427Z,8.00
2023-05-25T01:08:01.930Z,7.90
2023-05-25T01:10:31.652Z,7.90
2023-05-25T01:13:02.006Z,8.00
2023-05-25T01:15:31.016Z,8.10
2023-05-25T01:17:59.417Z,8.10
2023-05-25T01:20:30.712Z,8.10
2023-05-25T01:23:10.605Z,8.10
2023-05-25T01:25:51.639Z,8.00
2023-05-25T01:28:23.220Z,7.90
2023-05-25T01:30:51.163Z,7.80
2023-05-25T01:33:19.153Z,7.70
2023-05-25T01:35:47.544Z,7.70
2023-05-25T01:38:14.969Z,7.60
2023-05-25T01:40:41.894Z,7.60
2023-05-25T01:43:08.754Z,7.60
2023-05-25T01:45:36.845Z,7.70
2023-05-25T01:48:18.814Z,7.70
2023-05-25T01:50:59.664Z,7.60
2023-05-25T01:53:51.764Z,7.70
2023-05-25T01:56:21.679Z,7.70
2023-05-25T01:58:50.792Z,7.70
2023-05-25T02:01:19.818Z,7.80
2023-05-25T02:03:49.345Z,7.80
2023-05-25T02:06:16.780Z,7.80
2023-05-25T02:08:46.454Z,7.80
2023-05-25T02:11:14.860Z,7.80
2023-05-25T02:13:41.902Z,7.80
2023-05-25T02:16:09.131Z,7.90
2023-05-25T02:18:37.137Z,7.90
2023-05-25T02:21:04.148Z,7.90
2023-05-25T02:23:31.222Z,7.90
2023-05-25T02:25:58.190Z,8.00
2023-05-25T02:28:25.193Z,7.90
2023-05-25T02:30:52.164Z,7.80
2023-05-25T02:33:19.136Z,7.90
2023-05-25T02:35:46.942Z,7.90
2023-05-25T02:38:15.281Z,7.90
2023-05-25T02:40:42.459Z,7.90
2023-05-25T02:43:09.905Z,7.80
2023-05-25T02:45:36.893Z,7.80
2023-05-25T02:48:04.260Z,7.70
2023-05-25T02:50:33.146Z,7.70
2023-05-25T02:53:04.890Z,7.60
2023-05-25T02:55:31.852Z,7.60
2023-05-25T02:58:00.828Z,7.60
2023-05-25T03:00:52.264Z,7.50
2023-05-25T03:03:19.500Z,7.50
2023-05-25T03:05:47.402Z,7.40
2023-05-25T03:08:15.288Z,7.40
2023-05-25T03:10:42.522Z,7.40
2023-05-25T03:13:09.497Z,7.40
2023-05-25T03:15:36.506Z,7.40
2023-05-25T03:18:05.594Z,7.40
2023-05-25T03:20:37.002Z,7.40
2023-05-25T03:23:04.164Z,7.30
2023-05-25T03:25:31.653Z,7.20
2023-05-25T03:27:59.585Z,7.10
2023-05-25T03:30:26.629Z,7.10
2023-05-25T03:32:53.574Z,7.00
2023-05-25T03:35:20.647Z,7.00
2023-05-25T03:37:48.394Z,7.00
2023-05-25T03:40:15.526Z,7.00
2023-05-25T03:42:42.757Z,6.90
2023-05-25T03:45:10.387Z,6.90
2023-05-25T03:47:39.357Z,6.90
2023-05-25T03:50:07.869Z,6.90
2023-05-25T03:52:34.904Z,7.00
2023-05-25T03:55:04.668Z,7.10
2023-05-25T03:57:31.667Z,7.30
2023-05-25T03:59:59.438Z,7.30
2023-05-25T04:02:26.641Z,7.50
2023-05-25T04:04:57.137Z,7.70
2023-05-25T04:07:27.444Z,8.00
2023-05-25T04:09:54.371Z,8.10
2023-05-25T04:12:22.101Z,8.30
2023-05-25T04:14:50.048Z,8.50
2023-05-25T04:17:19.071Z,8.60
2023-05-25T04:19:46.231Z,8.80
2023-05-25T04:22:13.266Z,9.00
2023-05-25T04:24:41.662Z,9.20
2023-05-25T04:27:08.660Z,9.40
2023-05-25T04:29:35.706Z,9.50
2023-05-25T04:32:17.955Z,9.60
2023-05-25T04:35:05.784Z,9.80
2023-05-25T04:37:40.817Z,10.00
2023-05-25T04:40:14.292Z,10.20
2023-05-25T04:42:42.391Z,10.40
2023-05-25T04:45:17.631Z,10.50
2023-05-25T04:47:45.462Z,10.70
2023-05-25T04:50:13.592Z,10.90
2023-05-25T04:52:40.573Z,11.10
2023-05-25T04:55:09.949Z,11.20
2023-05-25T04:57:39.866Z,11.40
2023-05-25T05:00:09.936Z,11.60
2023-05-25T05:02:38.415Z,11.80
2023-05-25T05:05:06.609Z,11.90
2023-05-25T05:07:33.685Z,11.90
2023-05-25T05:10:00.722Z,11.90
2023-05-25T05:12:28.426Z,11.90
2023-05-25T05:14:58.029Z,12.00
2023-05-25T05:17:26.464Z,12.20
2023-05-25T05:19:53.706Z,12.30
2023-05-25T05:22:20.961Z,12.40
2023-05-25T05:24:47.923Z,12.50
2023-05-25T05:27:21.411Z,12.50
2023-05-25T05:29:53.814Z,12.60
2023-05-25T05:32:20.944Z,12.70
2023-05-25T05:34:47.980Z,12.90
2023-05-25T05:37:29.060Z,13.00
2023-05-25T05:39:57.185Z,13.20
2023-05-25T05:42:24.062Z,13.30
2023-05-25T05:44:50.922Z,13.50
2023-05-25T05:47:17.945Z,13.50
2023-05-25T05:49:45.018Z,13.50
2023-05-25T05:52:12.365Z,13.40
2023-05-25T05:54:39.552Z,13.20
2023-05-25T05:57:10.501Z,13.00
2023-05-25T05:59:37.513Z,12.80
2023-05-25T06:02:04.715Z,12.60
2023-05-25T06:04:31.585Z,12.60
2023-05-25T06:06:59.912Z,12.50
2023-05-25T06:09:26.810Z,12.40
2023-05-25T06:11:57.702Z,12.40
2023-05-25T06:14:26.787Z,12.30
2023-05-25T06:16:55.480Z,12.10
2023-05-25T06:19:24.812Z,12.10
2023-05-25T06:21:51.748Z,12.10
2023-05-25T06:24:21.356Z,12.20
2023-05-25T06:26:48.236Z,12.40
2023-05-25T06:29:17.427Z,12.60
2023-05-25T06:31:44.587Z,12.70
2023-05-25T06:34:11.518Z,12.80
2023-05-25T06:36:39.382Z,12.80
2023-05-25T06:39:06.416Z,12.70
2023-05-25T06:41:33.401Z,12.60
2023-05-25T06:44:00.449Z,12.40
2023-05-25T06:46:32.971Z,12.20
2023-05-25T06:49:00.977Z,12.10
2023-05-25T06:51:27.927Z,12.10
2023-05-25T06:53:58.006Z,12.20
2023-05-25T06:56:24.934Z,12.20
2023-05-25T06:58:51.885Z,12.40
2023-05-25T07:01:19.085Z,12.60
2023-05-25T07:03:46.271Z,12.90
2023-05-25T07:06:13.406Z,12.90
2023-05-25T07:08:40.382Z,13.00
2023-05-25T07:11:10.635Z,13.20
2023-05-25T07:13:37.630Z,13.30
2023-05-25T07:16:04.759Z,13.30
2023-05-25T07:18:32.841Z,13.30
2023-05-25T07:20:59.693Z,13.30
2023-05-25T07:23:26.741Z,13.40
2023-05-25T07:25:53.658Z,13.40
2023-05-25T07:28:20.744Z,13.50
2023-05-25T07:30:47.904Z,13.30
2023-05-25T07:33:14.922Z,13.20
2023-05-25T07:35:42.200Z,13.30
2023-05-25T07:38:09.467Z,13.60
2023-05-25T07:40:36.691Z,13.90
2023-05-25T07:43:04.816Z,13.90
2023-05-25T07:45:33.119Z,13.90
2023-05-25T07:48:00.195Z,14.00
2023-05-25T07:50:27.217Z,14.20
2023-05-25T07:52:54.158Z,14.50
2023-05-25T07:55:21.551Z,14.60
2023-05-25T07:57:48.359Z,14.80
2023-05-25T08:00:15.716Z,14.90
2023-05-25T08:02:43.558Z,14.90
2023-05-25T08:05:10.668Z,14.60
2023-05-25T08:07:39.501Z,14.50
2023-05-25T08:10:08.727Z,14.50
2023-05-25T08:12:47.772Z,14.30
2023-05-25T08:15:15.611Z,14.30
2023-05-25T08:17:42.712Z,14.10
2023-05-25T08:20:10.441Z,14.10
2023-05-25T08:22:38.483Z,14.10
2023-05-25T08:25:06.840Z,14.30
2023-05-25T08:27:35.803Z,14.30
2023-05-25T08:30:06.956Z,14.30
2023-05-25T08:32:34.006Z,14.30
2023-05-25T08:35:02.160Z,14.40
2023-05-25T08:37:29.531Z,14.50
2023-05-25T08:39:56.546Z,14.60
2023-05-25T08:42:23.934Z,14.70
2023-05-25T08:44:51.150Z,14.70
2023-05-25T08:47:20.528Z,14.90
2023-05-25T08:49:49.553Z,15.00
2023-05-25T08:52:21.712Z,15.20
2023-05-25T08:54:51.539Z,15.20
2023-05-25T08:57:29.886Z,15.10
2023-05-25T09:00:04.248Z,15.20
2023-05-25T09:02:40.344Z,15.20
2023-05-25T09:05:08.808Z,15.50
2023-05-25T09:07:36.052Z,15.70
2023-05-25T09:10:05.209Z,16.00
2023-05-25T09:12:32.617Z,16.30
2023-05-25T09:14:59.763Z,16.10
2023-05-25T09:17:27.380Z,16.10
2023-05-25T09:19:54.878Z,16.10
2023-05-25T09:22:22.339Z,15.80
2023-05-25T09:24:49.584Z,15.60
2023-05-25T09:27:19.081Z,15.70
2023-05-25T09:29:51.425Z,15.70
2023-05-25T09:32:19.247Z,15.70
2023-05-25T09:34:48.240Z,15.80
2023-05-25T09:37:17.540Z,15.90
2023-05-25T09:39:45.231Z,16.00
2023-05-25T09:42:12.619Z,15.90
2023-05-25T09:44:40.680Z,15.70
2023-05-25T09:47:07.712Z,15.60
2023-05-25T09:49:35.019Z,15.40
2023-05-25T09:52:02.518Z,15.50
2023-05-25T09:54:29.782Z,15.40
2023-05-25T09:56:56.669Z,15.50
2023-05-25T09:59:23.747Z,15.50
2023-05-25T10:01:53.951Z,15.50
2023-05-25T10:04:21.219Z,15.40
2023-05-25T10:06:52.198Z,15.40
2023-05-25T10:09:20.380Z,15.40
2023-05-25T10:11:51.391Z,15.50
2023-05-25T10:14:27.102Z,15.70
2023-05-25T10:16:59.358Z,16.00
2023-05-25T10:19:43.271Z,16.40
2023-05-25T10:22:40.282Z,16.60
2023-05-25T10:25:25.166Z,16.70
2023-05-25T10:27:59.985Z,16.70
2023-05-25T10:30:30.057Z,16.70
2023-05-25T10:32:57.711Z,16.90
2023-05-25T10:35:26.093Z,17.10
2023-05-25T10:37:55.558Z,17.30
2023-05-25T10:40:23.153Z,17.20
2023-05-25T10:42:51.795Z,16.90
2023-05-25T10:45:20.195Z,16.50
2023-05-25T10:47:47.385Z,16.30
2023-05-25T10:50:27.026Z,15.90
2023-05-25T10:53:01.939Z,15.70
2023-05-25T10:55:42.329Z,15.70
2023-05-25T10:58:11.890Z,15.90
2023-05-25T11:00:40.481Z,16.10
2023-05-25T11:03:07.824Z,16.10
2023-05-25T11:05:38.517Z,16.30
2023-05-25T11:08:08.749Z,16.40
2023-05-25T11:10:53.117Z,16.60
2023-05-25T11:13:41.333Z,16.50
2023-05-25T11:16:21.210Z,16.50
2023-05-25T11:18:59.080Z,16.30
2023-05-25T11:21:30.237Z,16.10
2023-05-25T11:24:04.695Z,16.00
2023-05-25T11:26:34.148Z,16.10
2023-05-25T11:29:11.491Z,16.30
2023-05-25T11:31:43.061Z,16.30
2023-05-25T11:34:12.093Z,16.40
2023-05-25T11:36:39.394Z,16.60
2023-05-25T11:39:16.885Z,16.60
2023-05-25T11:41:55.557Z,16.40
2023-05-25T11:44:30.631Z,16.60
2023-05-25T11:47:01.723Z,16.60
2023-05-25T11:49:29.126Z,16.50
2023-05-25T11:51:57.560Z,16.60
2023-05-25T11:54:27.656Z,16.60
2023-05-25T11:56:58.915Z,16.50
2023-05-25T11:59:29.841Z,16.30
2023-05-25T12:02:00.743Z,16.40
2023-05-25T12:04:28.557Z,16.60
2023-05-25T12:07:06.834Z,16.60
2023-05-25T12:09:34.803Z,16.60
2023-05-25T12:12:04.345Z,16.60
2023-05-25T12:14:32.985Z,16.30
2023-05-25T12:17:00.604Z,16.30
2023-05-25T12:19:27.746Z,16.30
2023-05-25T12:21:55.897Z,16.40
2023-05-25T12:24:22.829Z,16.60
2023-05-25T12:26:50.782Z,16.80
2023-05-25T12:29:17.841Z,17.10
2023-05-25T12:31:45.093Z,17.30
2023-05-25T12:34:17.389Z,17.30
2023-05-25T12:36:53.974Z,17.40
2023-05-25T12:39:29.829Z,17.50
2023-05-25T12:41:59.197Z,17.20
2023-05-25T12:44:37.204Z,17.20
2023-05-25T12:47:17.458Z,17.30
2023-05-25T12:49:53.004Z,17.10
2023-05-25T12:53:00.246Z,16.90
2023-05-25T12:55:31.636Z,16.80
2023-05-25T12:58:03.565Z,16.70
2023-05-25T13:00:38.458Z,16.60
2023-05-25T13:03:09.623Z,16.60
2023-05-25T13:05:38.388Z,16.60
2023-05-25T13:08:06.216Z,16.50
2023-05-25T13:10:34.074Z,16.40
2023-05-25T13:13:01.352Z,16.40
2023-05-25T13:15:29.066Z,16.40
2023-05-25T13:17:58.981Z,16.50
2023-05-25T13:20:27.997Z,16.80
2023-05-25T13:22:58.340Z,16.90
2023-05-25T13:25:28.441Z,17.10
2023-05-25T13:27:57.922Z,17.40
2023-05-25T13:30:25.438Z,17.50
2023-05-25T13:32:54.330Z,17.50
2023-05-25T13:35:38.024Z,17.40
2023-05-25T13:38:05.813Z,17.40
2023-05-25T13:40:32.805Z,17.60
2023-05-25T13:42:59.708Z,17.40
2023-05-25T13:45:26.924Z,17.30
2023-05-25T13:47:54.011Z,17.20
2023-05-25T13:50:21.365Z,17.00
2023-05-25T13:52:49.223Z,16.90
2023-05-25T13:55:16.165Z,16.80
2023-05-25T13:57:43.105Z,16.60
2023-05-25T14:00:10.384Z,16.60
2023-05-25T14:02:37.508Z,16.70
2023-05-25T14:05:04.953Z,16.80
2023-05-25T14:07:32.759Z,17.00
2023-05-25T14:10:00.262Z,17.00
2023-05-25T14:12:27.775Z,16.90
2023-05-25T14:14:54.881Z,16.90
2023-05-25T14:17:22.086Z,17.00
2023-05-25T14:19:50.133Z,17.40
2023-05-25T14:22:17.324Z,17.50
2023-05-25T14:24:44.382Z,17.40
2023-05-25T14:27:11.424Z,17.30
2023-05-25T14:29:39.033Z,17.30
2023-05-25T14:32:06.259Z,17.40
2023-05-25T14:34:33.110Z,17.40
2023-05-25T14:36:59.998Z,17.20
2023-05-25T14:39:27.168Z,17.10
2023-05-25T14:41:54.037Z,17.20
2023-05-25T14:44:21.288Z,17.30
2023-05-25T14:46:48.256Z,17.50
2023-05-25T14:49:16.842Z,17.60
2023-05-25T14:51:43.816Z,17.80
2023-05-25T14:54:13.565Z,17.90
2023-05-25T14:56:40.657Z,17.90
2023-05-25T14:59:07.677Z,17.80
2023-05-25T15:01:34.695Z,17.70
2023-05-25T15:04:01.773Z,17.70
2023-05-25T15:06:28.848Z,17.60
2023-05-25T15:08:56.138Z,17.40
2023-05-25T15:11:23.109Z,17.30
2023-05-25T15:13:50.045Z,17.40
2023-05-25T15:16:17.473Z,17.40
2023-05-25T15:18:45.139Z,17.50
2023-05-25T15:21:12.271Z,17.40
2023-05-25T15:23:39.159Z,17.50
2023-05-25T15:26:08.063Z,17.50
2023-05-25T15:28:35.352Z,17.50
2023-05-25T15:31:03.343Z,17.30
2023-05-25T15:33:44.200Z,17.00
2023-05-25T15:36:17.045Z,16.80
2023-05-25T15:38:44.576Z,16.50
2023-05-25T15:41:16.555Z,16.50
2023-05-25T15:43:58.227Z,16.60
2023-05-25T15:46:25.958Z,16.70
2023-05-25T15:48:53.825Z,16.70
2023-05-25T15:51:21.270Z,16.70
2023-05-25T15:53:48.441Z,16.90
2023-05-25T15:56:15.584Z,16.70
2023-05-25T15:58:42.495Z,16.80
2023-05-25T16:01:10.729Z,16.80
2023-05-25T16:03:39.528Z,16.50
2023-05-25T16:06:07.186Z,16.30
2023-05-25T16:08:34.038Z,16.30
2023-05-25T16:11:01.001Z,16.30
2023-05-25T16:13:27.888Z,16.30
2023-05-25T16:15:54.813Z,16.40
2023-05-25T16:18:21.868Z,16.40
2023-05-25T16:20:55.756Z,16.50
2023-05-25T16:23:23.762Z,16.60
2023-05-25T16:25:50.883Z,16.60
2023-05-25T16:28:18.197Z,16.60
2023-05-25T16:30:45.388Z,16.60
2023-05-25T16:33:12.348Z,16.60
2023-05-25T16:35:39.535Z,16.40
2023-05-25T16:38:06.454Z,16.30
2023-05-25T16:40:33.642Z,16.10
2023-05-25T16:43:00.653Z,16.00
2023-05-25T16:45:27.673Z,15.90
2023-05-25T16:47:54.553Z,15.70
2023-05-25T16:50:21.557Z,15.50
2023-05-25T16:52:48.582Z,15.50
2023-05-25T16:55:16.296Z,15.40
2023-05-25T16:57:43.464Z,15.40
2023-05-25T17:00:11.574Z,15.50
2023-05-25T17:02:38.487Z,15.60
2023-05-25T17:05:06.832Z,15.50
2023-05-25T17:07:34.662Z,15.40
2023-05-25T17:10:02.040Z,15.40
2023-05-25T17:12:28.945Z,15.40
2023-05-25T17:14:56.205Z,15.20
2023-05-25T17:17:23.065Z,15.30
2023-05-25T17:19:49.955Z,15.30
2023-05-25T17:22:17.062Z,15.30
2023-05-25T17:24:44.041Z,15.20
2023-05-25T17:27:12.074Z,15.10
2023-05-25T17:29:38.965Z,14.80
2023-05-25T17:32:06.264Z,14.80
2023-05-25T17:34:33.472Z,14.90
2023-05-25T17:37:00.443Z,14.90
2023-05-25T17:39:27.311Z,15.00
2023-05-25T17:41:54.493Z,15.10
2023-05-25T17:44:21.475Z,15.10
2023-05-25T17:46:48.388Z,15.20
2023-05-25T17:49:15.300Z,15.20
2023-05-25T17:51:42.150Z,15.30
2023-05-25T17:54:09.160Z,15.30
2023-05-25T17:56:36.178Z,15.20
2023-05-25T17:59:03.607Z,15.00
2023-05-25T18:01:30.637Z,14.90
2023-05-25T18:03:57.682Z,14.80
2023-05-25T18:06:25.724Z,14.60
2023-05-25T18:08:53.596Z,14.50
2023-05-25T18:11:20.483Z,14.30
2023-05-25T18:13:47.568Z,14.10
2023-05-25T18:16:14.489Z,14.00
2023-05-25T18:18:41.634Z,13.80
2023-05-25T18:21:08.684Z,13.70
2023-05-25T18:23:35.570Z,13.60
2023-05-25T18:26:04.583Z,13.70
2023-05-25T18:28:31.708Z,13.80
2023-05-25T18:30:58.836Z,13.90
2023-05-25T18:33:25.767Z,13.80
2023-05-25T18:35:53.741Z,13.70
2023-05-25T18:38:20.640Z,13.70
2023-05-25T18:40:47.559Z,13.70
2023-05-25T18:43:14.633Z,13.50
2023-05-25T18:45:41.623Z,13.30
2023-05-25T18:48:09.217Z,13.30
2023-05-25T18:50:40.286Z,13.30
2023-05-25T18:53:10.022Z,13.30
2023-05-25T18:55:40.106Z,13.20
2023-05-25T18:58:07.256Z,13.20
2023-05-25T19:00:34.403Z,13.10
2023-05-25T19:03:01.517Z,13.00
2023-05-25T19:05:28.554Z,12.90
2023-05-25T19:07:59.437Z,12.90
2023-05-25T19:10:30.305Z,12.90
2023-05-25T19:12:57.451Z,12.80
2023-05-25T19:15:25.609Z,12.90
2023-05-25T19:17:52.952Z,12.80
2023-05-25T19:20:20.039Z,12.70
2023-05-25T19:22:47.247Z,12.70
2023-05-25T19:25:14.593Z,12.70
2023-05-25T19:27:41.545Z,12.80
2023-05-25T19:30:08.689Z,12.80
2023-05-25T19:32:44.571Z,12.80
2023-05-25T19:35:11.689Z,12.90
2023-05-25T19:37:38.837Z,13.00
2023-05-25T19:40:08.875Z,13.00
2023-05-25T19:42:35.818Z,13.00
2023-05-25T19:45:02.848Z,12.90
2023-05-25T19:47:29.842Z,12.70
2023-05-25T19:49:57.084Z,12.60
2023-05-25T19:52:24.394Z,12.40
2023-05-25T19:54:51.343Z,12.20
2023-05-25T19:57:18.791Z,12.10
2023-05-25T19:59:45.842Z,12.00
2023-05-25T20:02:12.738Z,11.80
2023-05-25T20:04:42.744Z,11.60
2023-05-25T20:07:09.613Z,11.40
2023-05-25T20:09:38.602Z,11.30
2023-05-25T20:12:06.729Z,11.20
2023-05-25T20:14:33.757Z,11.10
2023-05-25T20:17:01.213Z,11.10
2023-05-25T20:19:28.273Z,11.00
2023-05-25T20:21:55.419Z,11.00
2023-05-25T20:24:25.427Z,10.90
2023-05-25T20:26:56.733Z,10.80
2023-05-25T20:29:24.035Z,10.80
2023-05-25T20:31:51.312Z,10.70
2023-05-25T20:34:18.771Z,10.70
2023-05-25T20:36:45.825Z,10.60
2023-05-25T20:39:12.755Z,10.60
2023-05-25T20:41:39.741Z,10.50
2023-05-25T20:44:14.129Z,10.50
2023-05-25T20:46:41.257Z,10.40
2023-05-25T20:49:08.118Z,10.40
2023-05-25T20:51:35.000Z,10.30
2023-05-25T20:54:02.136Z,10.30
2023-05-25T20:56:29.020Z,10.20
2023-05-25T20:58:57.517Z,10.20
2023-05-25T21:01:24.697Z,10.20
2023-05-25T21:03:51.664Z,10.10
2023-05-25T21:06:18.664Z,10.10
2023-05-25T21:08:45.677Z,10.10
2023-05-25T21:11:13.981Z,10.00
2023-05-25T21:13:43.475Z,10.00
2023-05-25T21:16:10.488Z,10.10
2023-05-25T21:18:37.412Z,10.10
2023-05-25T21:21:05.537Z,10.10
2023-05-25T21:23:32.497Z,10.10
2023-05-25T21:25:59.458Z,10.10
2023-05-25T21:28:26.602Z,10.10
2023-05-25T21:30:53.725Z,10.10
2023-05-25T21:33:20.739Z,10.10
2023-05-25T21:35:47.694Z,10.10
2023-05-25T21:38:14.756Z,10.10
2023-05-25T21:40:41.551Z,10.00
2023-05-25T21:43:09.236Z,10.00
2023-05-25T21:45:36.354Z,10.00
2023-05-25T21:48:04.692Z,10.00
2023-05-25T21:50:31.645Z,9.90
2023-05-25T21:52:58.610Z,9.90
2023-05-25T21:55:25.581Z,9.90
2023-05-25T21:57:52.430Z,9.80
2023-05-25T22:00:19.748Z,9.80
2023-05-25T22:02:46.830Z,9.70
2023-05-25T22:05:15.594Z,9.70
2023-05-25T22:07:42.553Z,9.70
2023-05-25T22:10:09.693Z,9.70
2023-05-25T22:12:36.717Z,9.60
2023-05-25T22:15:05.327Z,9.60
2023-05-25T22:17:32.312Z,9.60
2023-05-25T22:20:07.464Z,9.50
2023-05-25T22:22:37.376Z,9.50
2023-05-25T22:25:04.886Z,9.40
2023-05-25T22:27:32.889Z,9.40
2023-05-25T22:29:59.805Z,9.40
2023-05-25T22:32:27.655Z,9.30
2023-05-25T22:34:54.614Z,9.30
2023-05-25T22:37:21.651Z,9.20
2023-05-25T22:39:49.272Z,9.20
2023-05-25T22:42:16.225Z,9.20
2023-05-25T22:44:43.243Z,9.20
2023-05-25T22:47:10.114Z,9.20
2023-05-25T22:49:44.098Z,9.20
2023-05-25T22:52:12.055Z,9.20
2023-05-25T22:54:40.608Z,9.20
2023-05-25T22:57:09.976Z,9.20
2023-05-25T22:59:37.180Z,9.10
2023-05-25T23:02:04.806Z,9.00
2023-05-25T23:04:31.894Z,9.00
2023-05-25T23:06:59.148Z,8.90
2023-05-25T23:09:26.005Z,8.90
2023-05-25T23:11:52.873Z,8.90
2023-05-25T23:14:20.998Z,8.90
2023-05-25T23:16:50.519Z,8.80
2023-05-25T23:19:17.972Z,8.80
2023-05-25T23:21:45.043Z,8.80
2023-05-25T23:24:11.928Z,8.90
2023-05-25T23:26:38.765Z,8.80
2023-05-25T23:29:05.755Z,8.80
2023-05-25T23:31:32.693Z,8.80
2023-05-25T23:33:59.724Z,8.70
2023-05-25T23:36:28.430Z,8.60
2023-05-25T23:38:55.713Z,8.60
2023-05-25T23:41:23.162Z,8.50
2023-05-25T23:43:50.129Z,8.50
2023-05-25T23:46:17.636Z,8.50
2023-05-25T23:48:47.605Z,8.40
2023-05-25T23:51:14.690Z,8.40
2023-05-25T23:53:41.610Z,8.30
2023-05-25T23:56:08.579Z,8.30
2023-05-25T23:58:35.723Z,8.20
